Metal, Pennsylvania
Current Conditions -  °F | °C
As of 12:53 AM on Friday 31 Oct 2014 (Local Time) from KHGR Reporting Station
Clear Clear  
Wind Chill: 41°   Ceiling: Unl
Heat Index: 44°   Visibility: 10mi
Dew Point: 36°   Wind: 6mph
Humidity: 73%   Direction: 90°E
Pressure: 30.03"   Gusts: NA
Location:  39.9814°N, 77.8809°W
Report Text: KHGR 310453Z AUTO 09005KT 10SM CLR 07/02 A3003 RMK AO2 SLP180 T00670022 401330056
Loading
Personal Weather Stations






























Interactive Weather Map
Tropical Storm Tracking
New forecast layout! Learn more

10-Day Weather Forecast

Advertisements
Track Severe Weather on mobile